Time;durP1;ratioP1;P1;durP2;ratioP2;P2;SDS_P1;SDS_P2;PMS_P1;PMS_P2;Temp;Humidity;BMP_temperature;BMP_pressure;BME280_temperature;BME280_humidity;BME280_pressure;Samples;Min_cycle;Max_cycle;Signal;HPM_P1;HPM_P2
2023/09/25 00:00:56;;;;;;;5.57;3.92;;;410.40;2355.20;;;;;;5074581;28;20453;-61
2023/09/25 00:03:22;;;;;;;5.35;3.67;;;410.50;2355.20;;;;;;5080932;28;20060;-59
2023/09/25 00:05:48;;;;;;;5.00;3.58;;;410.50;2355.20;;;;;;5072443;28;20025;-61
2023/09/25 00:08:13;;;;;;;5.05;3.58;;;410.50;2355.20;;;;;;5079799;28;20028;-61
2023/09/25 00:10:41;;;;;;;5.57;3.80;;;410.50;2355.20;;;;;;5086782;28;20099;-61
2023/09/25 00:13:07;;;;;;;4.70;4.05;;;410.50;2355.20;;;;;;5089671;28;20028;-60
2023/09/25 00:15:34;;;;;;;5.88;4.10;;;410.40;2355.20;;;;;;5073479;28;20421;-60
2023/09/25 00:18:00;;;;;;;6.55;4.30;;;410.30;2355.20;;;;;;5066345;28;20059;-61
2023/09/25 00:20:26;;;;;;;5.65;3.78;;;410.30;2355.20;;;;;;5075747;28;20025;-60
2023/09/25 00:22:52;;;;;;;5.32;4.10;;;410.40;2355.20;;;;;;5071400;28;20024;-60
2023/09/25 00:25:22;;;;;;;6.68;4.28;;;410.50;2355.20;;;;;;5074479;28;20039;-60
2023/09/25 00:27:49;;;;;;;9.32;4.68;;;410.40;2355.20;;;;;;5091156;28;20070;-61
2023/09/25 00:30:14;;;;;;;5.72;4.07;;;410.30;2355.20;;;;;;5073672;28;20054;-59
2023/09/25 00:32:40;;;;;;;7.40;3.97;;;410.40;2355.20;;;;;;5071368;28;20021;-61
2023/09/25 00:35:09;;;;;;;11.40;4.47;;;410.30;2355.20;;;;;;5075934;28;20107;-59
2023/09/25 00:37:35;;;;;;;7.18;4.35;;;410.20;2355.20;;;;;;5078886;28;20029;-60
2023/09/25 00:40:13;;;;;;;8.25;4.57;;;410.30;2355.20;;;;;;5071745;28;20059;-60
2023/09/25 00:42:42;;;;;;;8.57;4.30;;;410.30;2355.20;;;;;;5071911;28;20158;-60
2023/09/25 00:45:09;;;;;;;5.60;3.80;;;410.40;2355.20;;;;;;5059410;28;20417;-61
2023/09/25 00:47:36;;;;;;;5.38;3.75;;;410.50;2355.20;;;;;;5072033;28;20036;-61
2023/09/25 00:50:04;;;;;;;5.50;4.18;;;410.50;2355.20;;;;;;5063102;28;20064;-59
2023/09/25 00:52:32;;;;;;;5.90;4.18;;;410.50;2355.20;;;;;;5068338;28;20032;-61
2023/09/25 00:55:04;;;;;;;5.85;3.63;;;410.50;2355.20;;;;;;5071259;28;20020;-61
2023/09/25 00:57:30;;;;;;;8.05;4.45;;;410.50;2355.20;;;;;;5084371;28;20039;-60
2023/09/25 00:59:56;;;;;;;6.43;4.75;;;410.40;2355.20;;;;;;5070607;28;20027;-59
2023/09/25 01:02:22;;;;;;;7.88;4.88;;;410.20;2355.20;;;;;;5070593;28;20021;-60
2023/09/25 01:04:48;;;;;;;5.80;4.35;;;410.20;2355.20;;;;;;5070583;28;20103;-61
2023/09/25 01:07:18;;;;;;;7.47;4.60;;;410.20;2355.20;;;;;;5071309;28;20029;-61
2023/09/25 01:10:07;;;;;;;8.25;4.97;;;410.20;2355.20;;;;;;5070870;28;20029;-59
2023/09/25 01:12:33;;;;;;;7.30;3.88;;;410.40;2355.20;;;;;;5077583;28;20047;-61
2023/09/25 01:14:59;;;;;;;6.88;4.95;;;410.40;2355.20;;;;;;5076913;28;20028;-61
2023/09/25 01:17:24;;;;;;;6.32;4.28;;;410.50;2355.20;;;;;;5070114;28;20108;-61
2023/09/25 01:19:50;;;;;;;5.10;3.92;;;410.50;2355.20;;;;;;5067583;28;20033;-61
2023/09/25 01:22:16;;;;;;;7.15;4.35;;;410.50;2355.20;;;;;;5085511;28;20028;-61
2023/09/25 01:24:41;;;;;;;9.27;5.07;;;410.50;2355.20;;;;;;5075900;28;20031;-60
2023/09/25 01:27:07;;;;;;;6.32;4.25;;;410.50;2355.20;;;;;;5070439;28;20036;-60
2023/09/25 01:29:33;;;;;;;6.20;4.72;;;435.20;2355.20;;;;;;5070754;28;20029;-60
2023/09/25 01:31:59;;;;;;;5.35;4.32;;;410.50;2355.20;;;;;;5070523;28;20020;-62
2023/09/25 01:34:24;;;;;;;8.20;4.45;;;410.40;2355.20;;;;;;5071804;28;20107;-61
2023/09/25 01:36:50;;;;;;;6.10;5.03;;;410.30;2355.20;;;;;;5071229;28;20370;-58
2023/09/25 01:39:17;;;;;;;7.20;5.28;;;410.20;2355.20;;;;;;5073229;28;20119;-60
2023/09/25 01:41:42;;;;;;;7.10;4.82;;;410.20;2355.20;;;;;;5071594;28;20036;-60
2023/09/25 01:44:08;;;;;;;6.47;4.80;;;410.30;2355.20;;;;;;5074146;28;20467;-61
2023/09/25 01:46:34;;;;;;;6.80;5.35;;;410.30;2355.20;;;;;;5071805;28;20030;-61
2023/09/25 01:49:00;;;;;;;7.88;5.95;;;410.30;2355.20;;;;;;5080966;28;20036;-60
2023/09/25 01:51:25;;;;;;;6.70;4.88;;;410.20;2355.20;;;;;;5069398;28;20139;-61
2023/09/25 01:53:51;;;;;;;9.15;5.50;;;410.20;2355.20;;;;;;5069736;28;20051;-61
2023/09/25 01:56:17;;;;;;;7.93;5.75;;;410.30;2355.20;;;;;;5074249;28;20031;-61
2023/09/25 01:58:44;;;;;;;6.72;5.50;;;410.20;2355.20;;;;;;5077384;28;20394;-61
2023/09/25 02:01:10;;;;;;;7.95;5.10;;;410.10;2355.20;;;;;;5068562;28;20110;-60
2023/09/25 02:03:36;;;;;;;14.52;5.57;;;410.20;2355.20;;;;;;5067691;28;20390;-61
2023/09/25 02:06:03;;;;;;;10.05;5.78;;;410.20;2355.20;;;;;;5069517;28;20021;-61
2023/09/25 02:08:29;;;;;;;8.13;5.97;;;410.10;2355.20;;;;;;5081555;28;20028;-61
2023/09/25 02:10:55;;;;;;;6.50;4.95;;;410.20;2355.20;;;;;;5083156;28;20021;-60
2023/09/25 02:13:21;;;;;;;8.88;5.80;;;410.20;2355.20;;;;;;5069570;28;20028;-60
2023/09/25 02:15:47;;;;;;;7.40;5.45;;;410.20;2355.20;;;;;;5069417;28;20032;-61
2023/09/25 02:18:14;;;;;;;9.45;6.97;;;410.10;2355.20;;;;;;5081655;28;20485;-60
2023/09/25 02:20:40;;;;;;;8.32;5.60;;;410.20;2355.20;;;;;;5068838;28;20034;-62
2023/09/25 02:23:06;;;;;;;7.10;5.60;;;410.40;2355.20;;;;;;5053888;28;20498;-61
2023/09/25 02:25:32;;;;;;;9.35;5.85;;;410.40;2355.20;;;;;;5057239;28;20028;-60
2023/09/25 02:27:58;;;;;;;7.75;5.13;;;410.40;2355.20;;;;;;5070694;28;20051;-60
2023/09/25 02:30:23;;;;;;;7.95;5.40;;;410.40;2355.20;;;;;;5069490;28;20024;-61
2023/09/25 02:32:49;;;;;;;8.65;5.07;;;410.30;2355.20;;;;;;5071143;28;20115;-61
2023/09/25 02:35:15;;;;;;;8.50;6.10;;;410.50;2355.20;;;;;;5088648;28;20024;-61
2023/09/25 02:37:41;;;;;;;9.13;6.18;;;410.40;2355.20;;;;;;5088247;28;20032;-60
2023/09/25 02:40:09;;;;;;;8.88;5.40;;;410.40;2355.20;;;;;;5088878;28;20028;-61
2023/09/25 02:42:35;;;;;;;8.30;5.60;;;410.50;2355.20;;;;;;5088481;28;20032;-61
2023/09/25 02:45:01;;;;;;;8.60;5.85;;;410.50;2355.20;;;;;;5088666;28;20526;-61
2023/09/25 02:47:26;;;;;;;6.00;4.57;;;410.30;2355.20;;;;;;5087518;28;20024;-60
2023/09/25 02:49:52;;;;;;;8.63;6.07;;;410.40;2355.20;;;;;;5088494;28;20045;-60
2023/09/25 02:52:18;;;;;;;8.70;5.50;;;410.50;2355.20;;;;;;5088249;28;20012;-61
2023/09/25 02:54:43;;;;;;;7.93;5.10;;;435.20;2355.20;;;;;;5087060;28;20028;-59
2023/09/25 02:57:09;;;;;;;8.10;5.95;;;435.20;2355.20;;;;;;5077855;28;20052;-60
2023/09/25 02:59:35;;;;;;;7.95;5.05;;;435.20;2355.20;;;;;;5086940;28;20384;-60
2023/09/25 03:02:02;;;;;;;5.95;4.53;;;410.50;2355.20;;;;;;5088435;28;20051;-61
2023/09/25 03:04:28;;;;;;;6.75;4.85;;;435.20;2355.20;;;;;;5088324;28;20024;-60
2023/09/25 03:06:56;;;;;;;7.80;5.00;;;410.50;2355.20;;;;;;5088101;28;20123;-62
2023/09/25 03:09:22;;;;;;;8.63;4.75;;;435.20;2355.20;;;;;;5087689;28;20024;-61
2023/09/25 03:11:47;;;;;;;7.55;4.88;;;410.50;2355.20;;;;;;5090926;28;20066;-60
2023/09/25 03:14:13;;;;;;;6.78;4.32;;;410.50;2355.20;;;;;;5092060;28;20608;-61
2023/09/25 03:16:40;;;;;;;7.88;4.70;;;410.50;2355.20;;;;;;5091665;28;20044;-61
2023/09/25 03:19:06;;;;;;;8.80;4.80;;;435.20;2355.20;;;;;;5091788;28;20089;-61
2023/09/25 03:21:33;;;;;;;7.15;4.07;;;435.20;2355.20;;;;;;5091738;28;20024;-62
2023/09/25 03:23:59;;;;;;;7.43;4.55;;;410.50;2355.20;;;;;;5092192;28;20030;-61
2023/09/25 03:26:24;;;;;;;7.78;5.47;;;410.50;2355.20;;;;;;5092402;28;20107;-62
2023/09/25 03:28:50;;;;;;;7.15;4.78;;;435.20;2355.20;;;;;;5085546;28;20082;-61
2023/09/25 03:31:16;;;;;;;6.43;4.28;;;410.50;2355.20;;;;;;5073569;28;20020;-61
2023/09/25 03:33:44;;;;;;;7.78;4.10;;;410.50;2355.20;;;;;;5084832;28;20077;-60
2023/09/25 03:36:09;;;;;;;6.03;4.03;;;410.50;2355.20;;;;;;5084953;28;20161;-61
2023/09/25 03:38:37;;;;;;;6.90;4.70;;;410.50;2355.20;;;;;;5091485;28;20123;-61
2023/09/25 03:41:02;;;;;;;6.30;4.40;;;435.20;2355.20;;;;;;5091589;28;20416;-61
2023/09/25 03:43:28;;;;;;;7.50;4.82;;;410.50;2355.20;;;;;;5091567;28;20020;-60
2023/09/25 03:45:54;;;;;;;5.30;4.07;;;435.30;2355.20;;;;;;5091453;28;20070;-61
2023/09/25 03:48:20;;;;;;;7.88;4.60;;;435.20;2355.20;;;;;;5091350;28;20024;-61
2023/09/25 03:50:46;;;;;;;6.60;4.25;;;435.30;2355.20;;;;;;5091081;28;20020;-60
2023/09/25 03:53:12;;;;;;;6.63;3.30;;;435.20;2355.20;;;;;;5064415;28;20028;-60
2023/09/25 03:55:40;;;;;;;5.13;3.42;;;435.20;2355.20;;;;;;5091199;28;20055;-61
2023/09/25 03:58:06;;;;;;;5.93;3.58;;;435.20;2355.20;;;;;;5091504;28;20032;-61
2023/09/25 04:00:32;;;;;;;6.43;4.07;;;435.30;2355.20;;;;;;5072854;28;20048;-61
2023/09/25 04:02:58;;;;;;;4.07;2.72;;;435.30;2355.20;;;;;;5084659;28;20028;-60
2023/09/25 04:05:24;;;;;;;4.78;3.33;;;435.30;2355.20;;;;;;5084249;28;20372;-62
2023/09/25 04:07:50;;;;;;;5.45;3.78;;;435.30;2355.20;;;;;;5090827;28;20101;-61
2023/09/25 04:10:16;;;;;;;6.22;3.90;;;435.30;2355.20;;;;;;5091690;28;20389;-62
2023/09/25 04:12:41;;;;;;;6.43;3.92;;;435.30;2355.20;;;;;;5084724;28;20051;-61
2023/09/25 04:15:13;;;;;;;6.15;3.78;;;435.30;2355.20;;;;;;5084886;28;20024;-59
2023/09/25 04:17:39;;;;;;;7.28;4.75;;;435.20;2355.20;;;;;;5090900;28;20044;-62
2023/09/25 04:20:15;;;;;;;5.65;3.40;;;435.30;2355.20;;;;;;5090822;28;20440;-61
2023/09/25 04:22:41;;;;;;;4.38;3.00;;;435.20;2355.20;;;;;;5070955;28;20030;-61
2023/09/25 04:25:08;;;;;;;4.97;3.70;;;435.20;2355.20;;;;;;5091342;28;20570;-62
2023/09/25 04:27:35;;;;;;;5.05;2.72;;;435.30;2355.20;;;;;;5090749;28;20507;-62
2023/09/25 04:30:03;;;;;;;4.90;3.83;;;435.20;2355.20;;;;;;5088110;28;20103;-61
2023/09/25 04:32:29;;;;;;;7.07;3.17;;;410.50;2355.20;;;;;;5078149;28;20074;-60
2023/09/25 04:34:55;;;;;;;5.82;3.30;;;435.20;2355.20;;;;;;5090845;28;20028;-61
2023/09/25 04:37:20;;;;;;;5.20;2.65;;;435.20;2355.20;;;;;;5090325;28;20047;-61
2023/09/25 04:39:46;;;;;;;4.93;2.80;;;435.20;2355.20;;;;;;5090806;28;20477;-61
2023/09/25 04:42:12;;;;;;;4.78;2.92;;;435.20;2355.20;;;;;;5090582;28;20027;-61
2023/09/25 04:44:38;;;;;;;6.47;3.33;;;435.20;2355.20;;;;;;5090871;28;20023;-61
2023/09/25 04:47:04;;;;;;;4.68;2.80;;;435.20;2355.20;;;;;;5090523;28;20355;-61
2023/09/25 04:49:30;;;;;;;4.03;2.88;;;410.50;2355.20;;;;;;5090708;28;20028;-61
2023/09/25 04:51:56;;;;;;;4.15;2.63;;;410.50;2355.20;;;;;;5090698;28;20024;-61
2023/09/25 04:54:22;;;;;;;8.18;3.67;;;410.50;2355.20;;;;;;5090598;28;20531;-61
2023/09/25 04:56:48;;;;;;;5.15;3.63;;;410.50;2355.20;;;;;;5083995;28;20115;-60
2023/09/25 04:59:13;;;;;;;5.57;4.30;;;410.40;2355.20;;;;;;5072040;28;20115;-62
2023/09/25 05:01:39;;;;;;;4.78;3.40;;;410.40;2355.20;;;;;;5081495;28;20020;-61
2023/09/25 05:04:05;;;;;;;5.85;3.35;;;410.40;2355.20;;;;;;5089786;28;20024;-61
2023/09/25 05:06:31;;;;;;;4.15;2.72;;;410.50;2355.20;;;;;;5090432;28;20377;-61
2023/09/25 05:08:57;;;;;;;4.00;2.72;;;435.20;2355.20;;;;;;5081477;28;20082;-60
2023/09/25 05:11:23;;;;;;;3.55;2.40;;;410.50;2355.20;;;;;;5061895;28;20056;-61
2023/09/25 05:13:49;;;;;;;7.97;2.92;;;410.50;2355.20;;;;;;5087540;28;20024;-61
2023/09/25 05:16:15;;;;;;;3.72;2.13;;;435.20;2355.20;;;;;;5090206;28;20438;-62
2023/09/25 05:18:42;;;;;;;3.90;2.30;;;410.50;2355.20;;;;;;5088876;28;20047;-61
2023/09/25 05:21:08;;;;;;;3.90;2.53;;;435.30;2355.20;;;;;;5090175;28;20016;-61
2023/09/25 05:23:34;;;;;;;9.98;3.78;;;435.40;2355.20;;;;;;5089581;28;20077;-61
2023/09/25 05:26:00;;;;;;;5.53;2.75;;;435.30;2355.20;;;;;;5075693;28;20040;-62
2023/09/25 05:28:26;;;;;;;5.00;2.50;;;435.30;2355.20;;;;;;5080437;28;20040;-59
2023/09/25 05:30:54;;;;;;;4.28;2.65;;;435.30;2355.20;;;;;;5069591;28;20069;-60
2023/09/25 05:33:20;;;;;;;4.93;2.80;;;435.30;2355.20;;;;;;5069670;28;20074;-59
2023/09/25 05:35:47;;;;;;;4.13;2.60;;;435.30;2355.20;;;;;;5073618;28;20028;-60
2023/09/25 05:38:13;;;;;;;5.57;3.60;;;435.30;2355.20;;;;;;5089362;28;20381;-61
2023/09/25 05:40:39;;;;;;;4.93;2.78;;;435.30;2355.20;;;;;;5089879;28;20020;-61
2023/09/25 05:43:04;;;;;;;4.32;2.45;;;435.30;2355.20;;;;;;5070440;28;20413;-61
2023/09/25 05:45:31;;;;;;;4.75;2.97;;;435.20;2355.20;;;;;;5077393;28;20020;-61
2023/09/25 05:47:57;;;;;;;3.53;2.40;;;435.20;2355.20;;;;;;5089463;28;20029;-61
2023/09/25 05:50:25;;;;;;;5.07;2.42;;;435.20;2355.20;;;;;;5088846;28;20028;-60
2023/09/25 05:52:51;;;;;;;4.47;2.45;;;435.20;2355.20;;;;;;5089392;28;20095;-61
2023/09/25 05:55:17;;;;;;;4.53;2.53;;;410.50;2355.20;;;;;;5089056;28;20027;-59
2023/09/25 05:57:43;;;;;;;6.95;3.67;;;435.20;2355.20;;;;;;5089040;28;20024;-63
2023/09/25 06:00:12;;;;;;;9.52;3.40;;;435.30;2355.20;;;;;;5089316;28;20522;-62
2023/09/25 06:02:42;;;;;;;5.18;3.03;;;435.40;2355.20;;;;;;5083669;28;20103;-61
2023/09/25 06:05:09;;;;;;;4.40;3.10;;;435.40;2355.20;;;;;;5083761;28;20032;-61
2023/09/25 06:07:35;;;;;;;4.47;3.42;;;435.50;2355.20;;;;;;5088628;28;20159;-61
2023/09/25 06:10:04;;;;;;;6.75;3.88;;;435.60;2355.20;;;;;;5088536;28;20055;-61
2023/09/25 06:12:29;;;;;;;5.72;4.25;;;435.60;2355.20;;;;;;5088973;28;20027;-61
2023/09/25 06:14:55;;;;;;;7.97;4.20;;;435.50;2355.20;;;;;;5088955;28;20378;-62
2023/09/25 06:17:21;;;;;;;6.50;3.33;;;435.60;2355.20;;;;;;5088622;28;20055;-62
2023/09/25 06:19:47;;;;;;;5.70;3.20;;;435.50;2355.20;;;;;;5078834;28;20052;-61
2023/09/25 06:22:13;;;;;;;5.90;3.53;;;435.50;2355.20;;;;;;5067044;28;20032;-61
2023/09/25 06:24:38;;;;;;;5.57;3.78;;;435.60;2355.20;;;;;;5075643;28;20103;-61
2023/09/25 06:27:04;;;;;;;5.82;3.40;;;435.40;2355.20;;;;;;5089252;28;20042;-61
2023/09/25 06:29:31;;;;;;;5.82;3.60;;;435.40;2355.20;;;;;;5088589;28;20034;-62
2023/09/25 06:31:57;;;;;;;5.88;3.20;;;435.40;2355.20;;;;;;5088519;28;20046;-61
2023/09/25 06:34:22;;;;;;;6.15;3.63;;;435.50;2355.20;;;;;;5087125;28;20055;-61
2023/09/25 06:36:48;;;;;;;5.70;3.30;;;435.70;2355.20;;;;;;5088498;28;20035;-61
2023/09/25 06:39:14;;;;;;;8.38;4.28;;;435.80;2355.20;;;;;;5071999;28;20029;-61
2023/09/25 06:41:42;;;;;;;5.10;3.40;;;435.50;2355.20;;;;;;5068095;28;20152;-61
2023/09/25 06:44:08;;;;;;;4.80;3.30;;;435.50;2355.20;;;;;;5065578;28;20013;-61
2023/09/25 06:46:34;;;;;;;6.50;3.50;;;435.70;2355.20;;;;;;5072624;28;20107;-61
2023/09/25 06:49:01;;;;;;;9.48;7.82;;;435.80;2355.20;;;;;;5072941;28;20109;-61
2023/09/25 06:51:31;;;;;;;5.50;4.05;;;435.80;2355.20;;;;;;5075536;28;20050;-60
2023/09/25 06:53:57;;;;;;;6.60;4.45;;;435.80;2355.20;;;;;;5075005;28;20048;-61
2023/09/25 06:56:23;;;;;;;3.85;2.90;;;435.90;2355.20;;;;;;5077926;28;20459;-60
2023/09/25 06:58:49;;;;;;;6.63;4.43;;;435.80;2355.20;;;;;;5090194;28;20448;-60
2023/09/25 07:01:14;;;;;;;4.50;3.28;;;435.80;2355.20;;;;;;5072085;28;20017;-60
2023/09/25 07:03:40;;;;;;;4.80;2.80;;;435.80;2355.20;;;;;;5081792;28;20044;-62
2023/09/25 07:06:06;;;;;;;6.38;2.83;;;435.80;2355.20;;;;;;5084174;28;20110;-60
2023/09/25 07:08:32;;;;;;;4.38;2.97;;;435.90;2355.20;;;;;;5086426;28;20032;-62
2023/09/25 07:10:58;;;;;;;7.20;3.38;;;435.70;2355.20;;;;;;5089907;28;20031;-61
2023/09/25 07:13:24;;;;;;;4.07;3.08;;;435.80;2355.20;;;;;;5092459;28;20102;-63
2023/09/25 07:15:50;;;;;;;4.38;3.35;;;435.70;2355.20;;;;;;5086463;28;20037;-62
2023/09/25 07:18:17;;;;;;;4.20;3.40;;;435.80;2355.20;;;;;;5077431;28;20127;-60
2023/09/25 07:20:45;;;;;;;6.13;3.78;;;435.90;2355.20;;;;;;5092231;28;20024;-65
2023/09/25 07:23:11;;;;;;;6.13;4.20;;;436.10;2355.20;;;;;;5091842;28;20067;-64
2023/09/25 07:25:37;;;;;;;5.20;4.35;;;436.10;2355.20;;;;;;5092447;28;20461;-65
2023/09/25 07:28:03;;;;;;;5.60;4.40;;;460.80;2380.80;;;;;;5085296;28;20039;-63
2023/09/25 07:30:29;;;;;;;7.28;4.60;;;461.00;2380.80;;;;;;5073788;28;20410;-63
2023/09/25 07:32:55;;;;;;;4.78;3.63;;;461.30;2380.80;;;;;;5081820;28;20035;-65
2023/09/25 07:35:21;;;;;;;3.97;2.63;;;461.40;2380.80;;;;;;5092152;28;20480;-64
2023/09/25 07:37:47;;;;;;;5.50;3.40;;;461.60;2380.80;;;;;;5082639;28;20028;-61
2023/09/25 07:40:14;;;;;;;5.72;3.30;;;461.60;2380.80;;;;;;5092207;28;20028;-63
2023/09/25 07:42:42;;;;;;;4.43;2.95;;;461.60;2380.80;;;;;;5085380;28;20020;-62
2023/09/25 07:45:12;;;;;;;4.28;2.95;;;461.60;2380.80;;;;;;5084697;28;20039;-62
2023/09/25 07:47:40;;;;;;;4.32;3.15;;;461.50;2380.80;;;;;;5088464;28;20080;-63
2023/09/25 07:50:10;;;;;;;5.53;3.97;;;461.60;2380.80;;;;;;5089867;28;20068;-65
2023/09/25 07:52:40;;;;;;;7.50;3.42;;;461.70;2380.80;;;;;;5084695;28;20024;-63
2023/09/25 07:55:11;;;;;;;4.60;3.53;;;461.70;2380.80;;;;;;5089646;28;20038;-62
2023/09/25 07:57:42;;;;;;;4.95;3.53;;;461.50;2380.80;;;;;;5088704;28;20107;-63
2023/09/25 08:00:10;;;;;;;5.80;3.95;;;461.70;2380.80;;;;;;5087282;28;20032;-63
2023/09/25 08:02:41;;;;;;;7.97;6.93;;;486.40;2380.80;;;;;;5085701;28;20470;-64
2023/09/25 08:05:07;;;;;;;5.25;4.00;;;486.70;2380.80;;;;;;5084916;28;20021;-64
2023/09/25 08:07:33;;;;;;;6.25;5.07;;;486.80;2380.80;;;;;;5079458;28;20471;-62
2023/09/25 08:10:00;;;;;;;5.50;4.20;;;486.80;2380.80;;;;;;5074256;28;20020;-64
2023/09/25 08:12:25;;;;;;;5.05;3.42;;;486.90;2380.80;;;;;;5091592;28;20024;-64
2023/09/25 08:14:51;;;;;;;6.80;4.05;;;487.00;2380.80;;;;;;5090759;28;20030;-63
2023/09/25 08:17:17;;;;;;;4.93;3.13;;;486.90;2380.80;;;;;;5091099;28;20398;-64
2023/09/25 08:19:42;;;;;;;5.03;2.80;;;487.00;2380.80;;;;;;5090658;28;20047;-62
2023/09/25 08:22:10;;;;;;;3.88;3.08;;;487.10;2380.80;;;;;;5091054;28;20074;-63
2023/09/25 08:24:35;;;;;;;3.95;2.63;;;487.10;2380.80;;;;;;5090343;28;20066;-65
2023/09/25 08:27:02;;;;;;;3.13;2.35;;;512.00;2380.80;;;;;;5091237;28;20369;-64
2023/09/25 08:29:28;;;;;;;4.82;3.70;;;512.20;2380.80;;;;;;5091453;28;20020;-64
2023/09/25 08:31:54;;;;;;;5.45;3.70;;;512.20;2380.80;;;;;;5090458;28;20508;-65
2023/09/25 08:34:19;;;;;;;5.28;3.55;;;487.10;2380.80;;;;;;5084351;28;20060;-63
2023/09/25 08:36:45;;;;;;;5.53;4.28;;;487.20;2380.80;;;;;;5084937;28;20027;-63
2023/09/25 08:39:13;;;;;;;6.22;3.92;;;512.10;2380.80;;;;;;5082858;28;20039;-62
2023/09/25 08:41:40;;;;;;;4.82;3.33;;;512.30;2380.80;;;;;;5069577;28;20029;-62
2023/09/25 08:44:06;;;;;;;5.10;3.53;;;512.40;2380.80;;;;;;5086438;28;20039;-61
2023/09/25 08:46:32;;;;;;;5.10;3.72;;;512.40;2380.80;;;;;;5082274;28;20104;-64
2023/09/25 08:48:59;;;;;;;4.25;3.35;;;512.40;2380.80;;;;;;5090837;28;20035;-63
2023/09/25 08:51:25;;;;;;;5.45;4.57;;;512.40;2380.80;;;;;;5076500;28;20012;-63
2023/09/25 08:53:51;;;;;;;4.90;4.03;;;512.60;2380.80;;;;;;5090871;28;20053;-63
2023/09/25 08:56:18;;;;;;;6.18;4.82;;;512.60;2380.80;;;;;;5090322;28;20035;-62
2023/09/25 08:58:45;;;;;;;5.95;4.85;;;512.40;2380.80;;;;;;5090292;28;20115;-72
2023/09/25 09:01:11;;;;;;;5.88;4.70;;;512.20;2380.80;;;;;;5090016;28;20020;-74
2023/09/25 09:03:37;;;;;;;7.30;5.53;;;512.10;2380.80;;;;;;5090000;28;20025;-72
2023/09/25 09:06:04;;;;;;;7.05;6.05;;;512.20;2380.80;;;;;;5089867;28;20351;-72
2023/09/25 09:08:31;;;;;;;5.30;4.43;;;512.10;2380.80;;;;;;5089884;28;20031;-65
2023/09/25 09:10:57;;;;;;;6.78;4.93;;;512.20;2380.80;;;;;;5089924;28;20020;-68
2023/09/25 09:13:23;;;;;;;6.22;4.82;;;512.30;2380.80;;;;;;5090003;28;20031;-73
2023/09/25 09:15:49;;;;;;;5.28;4.72;;;512.60;2380.80;;;;;;5089883;28;20024;-75
2023/09/25 09:18:24;;;;;;;5.93;4.70;;;512.80;2380.80;;;;;;5071472;28;20053;-76
2023/09/25 09:20:51;;;;;;;5.72;4.53;;;537.70;2406.40;;;;;;5080207;28;20415;-63
2023/09/25 09:23:16;;;;;;;4.70;3.70;;;537.90;2406.40;;;;;;5089995;28;20103;-75
2023/09/25 09:25:46;;;;;;;6.20;4.82;;;537.80;2406.40;;;;;;5089674;28;20402;-71
2023/09/25 09:28:13;;;;;;;7.45;4.95;;;537.60;2406.40;;;;;;5089225;28;20020;-69
2023/09/25 09:30:39;;;;;;;6.35;5.03;;;512.80;2380.80;;;;;;5063156;28;20531;-71
2023/09/25 09:33:08;;;;;;;6.35;4.68;;;512.60;2380.80;;;;;;5089481;28;20028;-76
2023/09/25 09:35:34;;;;;;;6.10;4.72;;;512.40;2380.80;;;;;;5062823;28;20013;-68
2023/09/25 09:38:02;;;;;;;5.85;4.63;;;512.30;2380.80;;;;;;5089658;28;20032;-75
2023/09/25 09:40:30;;;;;;;6.60;5.22;;;512.40;2380.80;;;;;;5089705;28;20281;-74
2023/09/25 09:42:56;;;;;;;5.82;4.68;;;512.20;2380.80;;;;;;5075691;28;20055;-75
2023/09/25 09:45:22;;;;;;;5.95;4.93;;;512.40;2380.80;;;;;;5089144;28;20047;-69
2023/09/25 09:47:50;;;;;;;6.93;5.80;;;512.70;2380.80;;;;;;5088798;28;20110;-72
2023/09/25 09:50:26;;;;;;;6.85;5.70;;;512.90;2380.80;;;;;;5073508;28;20036;-77
2023/09/25 09:52:52;;;;;;;7.10;5.95;;;538.30;2406.40;;;;;;5085261;28;20035;-72
2023/09/25 09:55:21;;;;;;;6.75;5.43;;;563.40;2432.00;;;;;;5089535;28;20063;-75
2023/09/25 09:57:48;;;;;;;7.30;5.88;;;;;;;;;;5089205;28;20082;-72
2023/09/25 10:00:15;;;;;;;6.72;5.57;;;;;;;;;;5089836;28;20126;-75
2023/09/25 10:02:41;;;;;;;8.07;6.03;;;589.20;2432.00;;;;;;5088520;28;20020;-75
2023/09/25 10:05:11;;;;;;;6.57;5.63;;;589.40;2432.00;;;;;;5089054;28;20024;-77
2023/09/25 10:08:09;;;;;;;6.88;6.05;;;589.30;2432.00;;;;;;5089175;28;20016;-76
2023/09/25 10:10:38;;;;;;;6.05;4.80;;;589.20;2432.00;;;;;;5088705;28;20505;-76
2023/09/25 10:13:09;;;;;;;7.93;5.60;;;589.40;2432.00;;;;;;5089047;28;20397;-79
2023/09/25 10:15:36;;;;;;;7.38;5.20;;;589.60;2432.00;;;;;;5075343;28;20107;-79
2023/09/25 10:18:03;;;;;;;5.90;5.03;;;589.60;2432.00;;;;;;5088792;28;20108;-75
2023/09/25 10:20:34;;;;;;;6.28;5.28;;;589.60;2432.00;;;;;;5074774;28;20024;-72
2023/09/25 10:23:19;;;;;;;6.55;5.60;;;589.40;2432.00;;;;;;5070436;28;20037;-68
2023/09/25 10:25:57;;;;;;;7.35;5.15;;;589.40;2432.00;;;;;;5063653;28;20114;-75
2023/09/25 10:28:36;;;;;;;5.85;4.88;;;589.30;2432.00;;;;;;5088595;28;20027;-65
2023/09/25 10:31:04;;;;;;;6.50;5.40;;;589.30;2432.00;;;;;;5089218;28;20032;-65
2023/09/25 10:33:36;;;;;;;5.95;5.32;;;589.20;2432.00;;;;;;5084167;28;20040;-66
2023/09/25 10:36:05;;;;;;;6.45;4.93;;;589.00;2432.00;;;;;;5081137;28;20048;-65
2023/09/25 10:38:34;;;;;;;8.02;5.53;;;589.20;2432.00;;;;;;5088331;28;20516;-65
2023/09/25 10:41:07;;;;;;;8.10;5.82;;;589.30;2432.00;;;;;;5088930;28;20494;-67
2023/09/25 10:43:34;;;;;;;;;;;589.10;2432.00;;;;;;5064254;28;20019;-66
2023/09/25 10:46:01;;;;;;;7.05;5.82;;;564.00;2432.00;;;;;;5087957;28;19908;-66
2023/09/25 10:48:27;;;;;;;6.03;5.13;;;588.80;2432.00;;;;;;5088004;28;20368;-66
2023/09/25 10:50:54;;;;;;;7.63;6.18;;;564.00;2432.00;;;;;;5088318;28;20028;-63
2023/09/25 10:53:23;;;;;;;7.45;6.25;;;563.90;2432.00;;;;;;5079519;28;20032;-67
2023/09/25 10:55:49;;;;;;;6.38;5.70;;;563.60;2432.00;;;;;;5071047;28;20691;-65
2023/09/25 10:58:17;;;;;;;6.38;5.25;;;563.80;2432.00;;;;;;5067980;28;20512;-65
2023/09/25 11:00:45;;;;;;;6.75;5.60;;;563.60;2432.00;;;;;;5078696;28;20098;-64
2023/09/25 11:03:11;;;;;;;7.18;6.10;;;538.50;2406.40;;;;;;5074167;28;20024;-66
2023/09/25 11:05:38;;;;;;;10.07;6.90;;;563.20;2432.00;;;;;;5088420;28;20372;-66
2023/09/25 11:08:06;;;;;;;8.43;6.72;;;563.30;2432.00;;;;;;5088757;28;20119;-66
2023/09/25 11:10:35;;;;;;;8.60;6.30;;;563.20;2432.00;;;;;;5087977;28;20016;-66
2023/09/25 11:13:01;;;;;;;12.30;7.10;;;563.40;2432.00;;;;;;5088577;28;20470;-66
2023/09/25 11:15:28;;;;;;;10.73;8.38;;;563.40;2432.00;;;;;;5077535;28;20025;-66
2023/09/25 11:17:57;;;;;;;10.38;7.65;;;538.40;2406.40;;;;;;5069995;28;20070;-66
2023/09/25 11:20:29;;;;;;;8.80;7.18;;;563.20;2432.00;;;;;;5069653;28;20151;-68
2023/09/25 11:23:18;;;;;;;9.07;6.55;;;538.50;2406.40;;;;;;5079671;28;20086;-64
2023/09/25 11:25:50;;;;;;;9.70;7.70;;;563.20;2432.00;;;;;;5005668;28;20029;-67
2023/09/25 11:28:17;;;;;;;8.85;7.40;;;538.50;2406.40;;;;;;5004691;28;20048;-68
2023/09/25 11:30:48;;;;;;;10.02;7.85;;;538.50;2406.40;;;;;;5005281;28;20030;-64
2023/09/25 11:33:21;;;;;;;12.55;8.77;;;563.30;2432.00;;;;;;5008435;28;20026;-64
2023/09/25 11:35:49;;;;;;;12.38;9.07;;;563.90;2432.00;;;;;;5009007;28;20112;-66
2023/09/25 11:38:19;;;;;;;16.77;10.23;;;588.80;2432.00;;;;;;5009733;28;20037;-66
2023/09/25 11:40:45;;;;;;;12.50;8.98;;;588.80;2432.00;;;;;;5008262;28;20033;-64
2023/09/25 11:43:12;;;;;;;10.77;7.45;;;589.00;2432.00;;;;;;5008983;28;20037;-65
2023/09/25 11:45:39;;;;;;;10.55;7.93;;;589.00;2432.00;;;;;;5008957;28;20403;-67
2023/09/25 11:48:05;;;;;;;8.27;6.13;;;589.00;2432.00;;;;;;5009528;28;20032;-67
2023/09/25 11:50:31;;;;;;;10.00;6.90;;;589.00;2432.00;;;;;;5009210;28;20057;-66
2023/09/25 11:52:57;;;;;;;8.48;7.18;;;589.10;2432.00;;;;;;5009447;28;20100;-66
2023/09/25 11:55:23;;;;;;;7.85;6.50;;;589.20;2432.00;;;;;;5008780;28;20033;-68
2023/09/25 11:57:49;;;;;;;6.60;5.53;;;589.30;2432.00;;;;;;5009323;28;20034;-66
2023/09/25 12:00:16;;;;;;;8.57;6.03;;;589.40;2432.00;;;;;;5009444;28;20030;-65
2023/09/25 12:02:44;;;;;;;8.23;6.47;;;589.50;2432.00;;;;;;5032616;28;20028;-66
2023/09/25 12:05:10;;;;;;;9.45;5.97;;;589.50;2432.00;;;;;;5090564;28;20024;-66
2023/09/25 12:07:36;;;;;;;8.13;6.07;;;589.40;2432.00;;;;;;5086396;28;20032;-75
2023/09/25 12:10:12;;;;;;;7.78;5.43;;;589.70;2432.00;;;;;;5062036;28;20020;-65
2023/09/25 12:12:39;;;;;;;5.68;5.07;;;589.60;2432.00;;;;;;5082277;28;21167;-73
2023/09/25 12:15:08;;;;;;;6.85;5.75;;;589.50;2432.00;;;;;;5071142;28;20016;-75
2023/09/25 12:17:35;;;;;;;6.50;5.05;;;589.40;2432.00;;;;;;5087366;28;20119;-75